Time;durP1;ratioP1;P1;durP2;ratioP2;P2;SDS_P1;SDS_P2;PMS_P1;PMS_P2;Temp;Humidity;BMP_temperature;BMP_pressure;BME280_temperature;BME280_humidity;BME280_pressure;Samples;Min_cycle;Max_cycle;Signal;HPM_P1;HPM_P2
2022/04/20 00:02:01;;;;;;;52.83;24.52;;;;;;;;;;5017749;28;20387;-93
2022/04/20 00:04:27;;;;;;;36.60;21.13;;;;;;;;;;5050671;28;20472;-93
2022/04/20 00:06:52;;;;;;;32.83;18.85;;;;;;;;;;5034315;28;20025;-94
2022/04/20 00:09:18;;;;;;;39.13;19.98;;;;;;;;;;5050956;28;20033;-92
2022/04/20 00:11:46;;;;;;;46.58;21.70;;;;;;;;;;5051490;28;20060;-94
2022/04/20 00:14:12;;;;;;;51.10;24.30;;;;;;;;;;5050878;28;20125;-94
2022/04/20 00:16:37;;;;;;;31.50;19.02;;;;;;;;;;5050746;28;20595;-94
2022/04/20 00:19:03;;;;;;;33.17;17.65;;;;;;;;;;5017812;28;20034;-94
2022/04/20 00:21:28;;;;;;;30.48;16.80;;;;;;;;;;5050931;28;20049;-95
2022/04/20 00:23:57;;;;;;;28.45;16.73;;;;;;;;;;5017518;28;20088;-92
2022/04/20 00:26:22;;;;;;;24.55;15.77;;;;;;;;;;5050525;28;20032;-93
2022/04/20 00:28:47;;;;;;;24.42;15.00;;;;;;;;;;5050673;28;20021;-93
2022/04/20 00:31:13;;;;;;;25.75;15.02;;;;;;;;;;5050470;28;20028;-92
2022/04/20 00:33:38;;;;;;;26.35;15.65;;;;;;;;;;5016919;28;20096;-93
2022/04/20 00:36:04;;;;;;;19.80;12.80;;;;;;;;;;5050058;28;20044;-92
2022/04/20 00:38:29;;;;;;;22.70;14.57;;;;;;;;;;5033811;28;20087;-93
2022/04/20 00:40:55;;;;;;;17.85;11.95;;;;;;;;;;5017044;28;20021;-92
2022/04/20 00:43:21;;;;;;;23.27;13.43;;;;;;;;;;5050280;28;20025;-92
2022/04/20 00:45:47;;;;;;;22.27;14.15;;;;;;;;;;5050339;28;20141;-93
2022/04/20 00:48:13;;;;;;;23.55;13.40;;;;;;;;;;5017325;28;20029;-92
2022/04/20 00:50:43;;;;;;;22.42;14.35;;;;;;;;;;5050503;28;20415;-93
2022/04/20 00:53:09;;;;;;;36.47;19.70;;;;;;;;;;5050219;28;20068;-93
2022/04/20 00:55:34;;;;;;;27.13;16.13;;;;;;;;;;5050282;28;20026;-92
2022/04/20 00:58:03;;;;;;;31.63;18.50;;;;;;;;;;5017533;28;20033;-93
2022/04/20 01:00:31;;;;;;;31.75;18.35;;;;;;;;;;5017443;28;20021;-93
2022/04/20 01:02:58;;;;;;;26.13;16.00;;;;;;;;;;5050243;28;20021;-93
2022/04/20 01:05:28;;;;;;;20.23;13.95;;;;;;;;;;5051053;28;20472;-93
2022/04/20 01:08:15;;;;;;;22.48;15.18;;;;;;;;;;5053235;28;20052;-94
2022/04/20 01:11:13;;;;;;;24.45;15.18;;;;;;;;;;5022387;28;20064;-93
2022/04/20 01:14:05;;;;;;;18.20;12.50;;;;;;;;;;5020994;28;20361;-93
2022/04/20 01:16:56;;;;;;;19.25;13.02;;;;;;;;;;5033497;28;20434;-92
2022/04/20 01:19:40;;;;;;;18.55;11.73;;;;;;;;;;5033766;28;20041;-92
2022/04/20 01:22:24;;;;;;;17.52;13.02;;;;;;;;;;5033882;28;20044;-93
2022/04/20 01:24:59;;;;;;;18.55;13.15;;;;;;;;;;5017749;28;20481;-92
2022/04/20 01:27:56;;;;;;;31.65;16.08;;;;;;;;;;5020968;28;20036;-92
2022/04/20 01:30:42;;;;;;;59.13;24.08;;;;;;;;;;5052628;28;20037;-91
2022/04/20 01:33:27;;;;;;;48.95;20.77;;;;;;;;;;5019464;28;20026;-91
2022/04/20 01:35:53;;;;;;;49.08;22.73;;;;;;;;;;5032720;28;20032;-93
2022/04/20 01:38:19;;;;;;;45.22;22.92;;;;;;;;;;5049870;28;20017;-88
2022/04/20 01:40:44;;;;;;;75.13;31.88;;;;;;;;;;5016461;28;20033;-91
2022/04/20 01:43:10;;;;;;;62.53;30.20;;;;;;;;;;5016225;28;20483;-91
2022/04/20 01:45:41;;;;;;;48.40;24.58;;;;;;;;;;5050193;28;20052;-90
2022/04/20 01:48:40;;;;;;;30.65;17.67;;;;;;;;;;5035536;28;20033;-90
2022/04/20 01:51:46;;;;;;;25.65;15.82;;;;;;;;;;5036522;28;20083;-90
2022/04/20 01:54:23;;;;;;;24.23;14.95;;;;;;;;;;5055006;28;20022;-90
2022/04/20 01:56:52;;;;;;;22.83;14.43;;;;;;;;;;5036744;28;20022;-90
2022/04/20 01:59:30;;;;;;;23.58;14.48;;;;;;;;;;5036991;28;20083;-93
2022/04/20 02:02:38;;;;;;;22.27;14.32;;;;;;;;;;5036435;28;20072;-92
2022/04/20 02:05:24;;;;;;;22.60;13.98;;;;;;;;;;5037438;28;20045;-92
2022/04/20 02:08:10;;;;;;;20.67;13.77;;;;;;;;;;5026516;28;20080;-90
2022/04/20 02:10:55;;;;;;;21.35;14.10;;;;;;;;;;5037021;28;20476;-91
2022/04/20 02:13:20;;;;;;;18.17;13.48;;;;;;;;;;5019879;28;20033;-92
2022/04/20 02:15:47;;;;;;;22.20;14.02;;;;;;;;;;5020254;28;20021;-90
2022/04/20 02:18:36;;;;;;;20.05;13.23;;;;;;;;;;5023368;28;20545;-93
2022/04/20 02:21:40;;;;;;;19.48;13.45;;;;;;;;;;4984985;28;20444;-92
2022/04/20 02:24:05;;;;;;;21.00;14.10;;;;;;;;;;4996274;28;20030;-92
2022/04/20 02:26:31;;;;;;;19.08;14.02;;;;;;;;;;4997579;28;20065;-91
2022/04/20 02:28:56;;;;;;;20.25;13.70;;;;;;;;;;5052888;28;20022;-92
2022/04/20 02:31:22;;;;;;;21.23;14.10;;;;;;;;;;5019742;28;20051;-93
2022/04/20 02:33:47;;;;;;;22.48;14.20;;;;;;;;;;5019492;28;20507;-92
2022/04/20 02:36:12;;;;;;;20.60;13.90;;;;;;;;;;5052925;28;20117;-92
2022/04/20 02:38:39;;;;;;;21.20;13.48;;;;;;;;;;5052680;28;20044;-93
2022/04/20 02:41:05;;;;;;;18.33;13.10;;;;;;;;;;5019160;28;20012;-93
2022/04/20 02:43:30;;;;;;;21.17;13.60;;;;;;;;;;5052771;28;20029;-93
2022/04/20 02:45:56;;;;;;;19.63;13.13;;;;;;;;;;5051927;28;20389;-92
2022/04/20 02:48:22;;;;;;;18.42;13.27;;;;;;;;;;5052370;28;20061;-91
2022/04/20 02:50:47;;;;;;;22.52;13.65;;;;;;;;;;5035646;28;20460;-91
2022/04/20 02:53:13;;;;;;;20.58;13.70;;;;;;;;;;5052589;28;20443;-91
2022/04/20 02:55:40;;;;;;;19.20;13.00;;;;;;;;;;5019509;28;20104;-92
2022/04/20 02:58:06;;;;;;;20.23;13.52;;;;;;;;;;5051826;28;20079;-93
2022/04/20 03:00:32;;;;;;;19.63;13.05;;;;;;;;;;5052652;28;20014;-92
2022/04/20 03:03:12;;;;;;;18.88;12.75;;;;;;;;;;5021377;28;20026;-91
2022/04/20 03:05:38;;;;;;;19.48;12.82;;;;;;;;;;5052051;28;20049;-90
2022/04/20 03:08:03;;;;;;;21.63;13.13;;;;;;;;;;5052150;28;20025;-94
2022/04/20 03:10:29;;;;;;;19.20;12.32;;;;;;;;;;5019012;28;20400;-92
2022/04/20 03:12:55;;;;;;;22.65;13.10;;;;;;;;;;5018435;28;20024;-91
2022/04/20 03:15:20;;;;;;;22.00;13.20;;;;;;;;;;5018850;28;20420;-92
2022/04/20 03:17:46;;;;;;;21.90;13.43;;;;;;;;;;5052071;28;20018;-91
2022/04/20 03:20:12;;;;;;;19.13;13.05;;;;;;;;;;5035009;28;20029;-92
2022/04/20 03:22:38;;;;;;;20.65;13.05;;;;;;;;;;5035301;28;20017;-92
2022/04/20 03:25:04;;;;;;;23.48;13.27;;;;;;;;;;5018571;28;20045;-94
2022/04/20 03:27:52;;;;;;;21.00;12.85;;;;;;;;;;5035440;28;20025;-92
2022/04/20 03:30:19;;;;;;;30.95;21.02;;;;;;;;;;5052332;28;20034;-93
2022/04/20 03:32:44;;;;;;;40.67;24.17;;;;;;;;;;5018117;28;20140;-94
2022/04/20 03:35:10;;;;;;;29.95;18.73;;;;;;;;;;5051855;28;20037;-92
2022/04/20 03:37:37;;;;;;;26.00;16.75;;;;;;;;;;5018734;28;20028;-92
2022/04/20 03:40:08;;;;;;;26.17;17.08;;;;;;;;;;5035167;28;20057;-91
2022/04/20 03:42:33;;;;;;;27.00;15.52;;;;;;;;;;5051791;28;20017;-92
2022/04/20 03:44:59;;;;;;;26.67;16.52;;;;;;;;;;5018030;28;20060;-94
2022/04/20 03:47:24;;;;;;;25.45;14.98;;;;;;;;;;5051476;28;20025;-93
2022/04/20 03:49:50;;;;;;;25.13;14.80;;;;;;;;;;5017832;28;20478;-91
2022/04/20 03:52:15;;;;;;;25.40;15.23;;;;;;;;;;5034390;28;20468;-91
2022/04/20 03:54:41;;;;;;;25.13;15.13;;;;;;;;;;5034728;28;20017;-94
2022/04/20 03:57:10;;;;;;;30.20;16.88;;;;;;;;;;5051838;28;20360;-91
2022/04/20 03:59:40;;;;;;;24.77;15.38;;;;;;;;;;5034305;28;20044;-93
2022/04/20 04:02:07;;;;;;;22.75;14.90;;;;;;;;;;5051407;28;20116;-91
2022/04/20 04:04:38;;;;;;;28.02;15.95;;;;;;;;;;5018446;28;20112;-91
2022/04/20 04:07:13;;;;;;;27.92;16.63;;;;;;;;;;5019444;28;20041;-93
2022/04/20 04:24:35;;;;;;;25.73;16.23;;;;;;;;;;5020670;28;20500;-90
2022/04/20 04:27:05;;;;;;;25.77;15.88;;;;;;;;;;5050847;28;20044;-89
2022/04/20 04:29:33;;;;;;;26.73;17.13;;;;;;;;;;5033624;28;20125;-89
2022/04/20 04:32:05;;;;;;;32.03;17.63;;;;;;;;;;5049401;28;20013;-90
2022/04/20 04:34:40;;;;;;;27.30;16.73;;;;;;;;;;5033523;28;20071;-91
2022/04/20 04:37:14;;;;;;;31.00;17.13;;;;;;;;;;5033441;28;20037;-91
2022/04/20 04:39:47;;;;;;;29.65;16.90;;;;;;;;;;5033439;28;20090;-89
2022/04/20 04:42:20;;;;;;;31.55;17.25;;;;;;;;;;5033210;28;20037;-88
2022/04/20 04:50:44;;;;;;;45.15;24.67;;;;;;;;;;5033078;28;20361;-89
2022/04/20 04:53:13;;;;;;;33.60;20.73;;;;;;;;;;5048840;28;20013;-90
2022/04/20 04:55:41;;;;;;;37.80;23.38;;;;;;;;;;5049586;28;20040;-90
2022/04/20 04:58:06;;;;;;;44.55;25.65;;;;;;;;;;5032985;28;20071;-89
2022/04/20 05:00:33;;;;;;;36.90;22.80;;;;;;;;;;5033196;28;20029;-89
2022/04/20 05:03:16;;;;;;;36.30;22.83;;;;;;;;;;5047347;28;20085;-89
2022/04/20 05:05:43;;;;;;;35.38;22.70;;;;;;;;;;5032773;28;20087;-90
2022/04/20 05:08:09;;;;;;;39.53;24.10;;;;;;;;;;5049410;28;20025;-91
2022/04/20 05:10:35;;;;;;;40.97;26.17;;;;;;;;;;5032732;28;20140;-90
2022/04/20 05:13:01;;;;;;;42.67;25.60;;;;;;;;;;5049794;28;20527;-91
2022/04/20 05:15:40;;;;;;;46.75;26.98;;;;;;;;;;5016374;28;20487;-90
2022/04/20 05:18:13;;;;;;;48.92;28.85;;;;;;;;;;5050164;28;20180;-89
2022/04/20 05:20:41;;;;;;;49.50;29.88;;;;;;;;;;5032454;28;20080;-90
2022/04/20 05:23:14;;;;;;;45.53;26.75;;;;;;;;;;5053085;28;20028;-91
2022/04/20 05:26:03;;;;;;;;;;;;;;;;;;;;;
2022/04/20 05:28:32;;;;;;;35.88;21.40;;;;;;;;;;5034683;28;20037;-90
2022/04/20 05:31:00;;;;;;;40.35;22.92;;;;;;;;;;5020692;28;20104;-90
2022/04/20 05:42:46;;;;;;;58.50;31.80;;;;;;;;;;5036530;28;20038;-91
2022/04/20 05:45:12;;;;;;;51.75;29.10;;;;;;;;;;5019711;28;20041;-90
2022/04/20 05:47:43;;;;;;;53.53;29.10;;;;;;;;;;5053748;28;20031;-90
2022/04/20 05:50:13;;;;;;;55.00;28.63;;;;;;;;;;5053787;28;20029;-91
2022/04/20 05:52:46;;;;;;;56.13;31.08;;;;;;;;;;5053204;28;20044;-92
2022/04/20 05:55:29;;;;;;;58.67;32.28;;;;;;;;;;5036707;28;20446;-90
2022/04/20 05:58:17;;;;;;;56.58;31.67;;;;;;;;;;5036732;28;20530;-93
2022/04/20 06:01:01;;;;;;;57.80;30.38;;;;;;;;;;5036745;28;20029;-92
2022/04/20 06:04:02;;;;;;;51.85;29.98;;;;;;;;;;5023780;28;20025;-90
2022/04/20 06:06:53;;;;;;;42.40;25.42;;;;;;;;;;5053239;28;20052;-91
2022/04/20 06:10:24;;;;;;;46.92;26.05;;;;;;;;;;5037215;28;20026;-94
2022/04/20 06:34:42;;;;;;;45.22;26.95;;;;;;;;;;5032727;28;20053;-82
2022/04/20 06:37:38;;;;;;;46.05;27.17;;;;;;;;;;4947671;28;20032;-81
2022/04/20 06:40:22;;;;;;;47.75;27.60;;;;;;;;;;5035591;28;20051;-82
2022/04/20 06:42:54;;;;;;;46.80;27.50;;;;;;;;;;5033924;28;20048;-82
2022/04/20 06:45:31;;;;;;;45.67;26.35;;;;;;;;;;5035421;28;20096;-82
2022/04/20 06:48:15;;;;;;;49.38;27.67;;;;;;;;;;5020519;28;20452;-82
2022/04/20 06:50:51;;;;;;;47.58;27.92;;;;;;;;;;5017309;28;20029;-81
2022/04/20 06:59:07;;;;;;;47.55;27.48;;;;;;;;;;5035303;28;20068;-81
2022/04/20 07:01:56;;;;;;;43.58;26.58;;;;;;;;;;5034590;28;20109;-81
2022/04/20 07:04:39;;;;;;;51.83;28.63;;;;;;;;;;5019805;28;20033;-81
2022/04/20 07:07:28;;;;;;;49.28;28.88;;;;;;;;;;4988498;28;20068;-81
2022/04/20 07:10:05;;;;;;;55.88;28.35;;;;;;;;;;5016935;28;20028;-81
2022/04/20 07:12:40;;;;;;;53.30;28.55;;;;;;;;;;5034765;28;20115;-80
2022/04/20 07:15:06;;;;;;;50.85;29.00;;;;;;;;;;5033405;28;20061;-81
2022/04/20 07:17:31;;;;;;;54.10;29.25;;;;;;;;;;5017030;28;20025;-80
2022/04/20 07:20:17;;;;;;;50.17;29.85;;;;;;;;;;5016901;28;20117;-80
2022/04/20 07:23:08;;;;;;;53.72;30.50;;;;;;;;;;5026442;28;20045;-80
2022/04/20 07:25:40;;;;;;;55.03;30.38;;;;;;;;;;5016496;28;20030;-80
2022/04/20 07:28:24;;;;;;;58.55;30.92;;;;;;;;;;5034748;28;20119;-80
2022/04/20 07:31:04;;;;;;;54.92;30.30;;;;;;;;;;5034309;28;20021;-80
2022/04/20 07:33:30;;;;;;;53.03;29.42;;;;;;;;;;5034319;28;20064;-80
2022/04/20 07:36:09;;;;;;;57.50;30.90;;;;;;;;;;5034303;28;20029;-81
2022/04/20 07:39:07;;;;;;;58.97;32.78;;;;;;;;;;4979028;28;20076;-80
2022/04/20 07:41:51;;;;;;;56.05;32.85;;;;;;;;;;5034365;28;20515;-80
2022/04/20 07:44:22;;;;;;;51.28;31.70;;;;;;;;;;5034112;28;20094;-80
2022/04/20 07:46:53;;;;;;;57.90;31.48;;;;;;;;;;5015620;28;20492;-83
2022/04/20 07:52:24;;;;;;;45.05;27.67;;;;;;;;;;5033854;28;20026;-83
2022/04/20 07:55:06;;;;;;;52.47;29.30;;;;;;;;;;5033967;28;20010;-82
2022/04/20 07:57:43;;;;;;;38.00;21.83;;;;;;;;;;5033942;28;20025;-82
2022/04/20 08:00:22;;;;;;;43.78;24.90;;;;;;;;;;5033784;28;20053;-82
2022/04/20 08:03:11;;;;;;;42.45;23.52;;;;;;;;;;5033634;28;20049;-81
2022/04/20 08:05:37;;;;;;;41.42;23.52;;;;;;;;;;5015356;28;20168;-82
2022/04/20 08:08:03;;;;;;;39.40;23.58;;;;;;;;;;5016084;28;20108;-82
2022/04/20 08:10:29;;;;;;;44.03;23.55;;;;;;;;;;5016288;28;20025;-82
2022/04/20 08:12:54;;;;;;;38.00;22.80;;;;;;;;;;5033688;28;20029;-81
2022/04/20 08:15:25;;;;;;;43.88;24.42;;;;;;;;;;5032233;28;20030;-81
2022/04/20 08:17:51;;;;;;;45.13;26.58;;;;;;;;;;5032167;28;20033;-80
2022/04/20 08:20:35;;;;;;;49.85;30.67;;;;;;;;;;5033696;28;20400;-79
2022/04/20 08:23:01;;;;;;;48.38;27.70;;;;;;;;;;5032176;28;20025;-76
2022/04/20 08:25:26;;;;;;;37.72;21.60;;;;;;;;;;5033423;28;20530;-80
2022/04/20 08:27:51;;;;;;;38.25;24.10;;;;;;;;;;5033341;28;20354;-80
2022/04/20 08:30:17;;;;;;;47.95;27.85;;;;;;;;;;5033213;28;20025;-80
2022/04/20 08:32:42;;;;;;;44.00;26.85;;;;;;;;;;5012053;28;20068;-80
2022/04/20 08:35:08;;;;;;;38.13;21.35;;;;;;;;;;5012134;28;20026;-80
2022/04/20 08:37:33;;;;;;;45.50;26.35;;;;;;;;;;5013424;28;20219;-84
2022/04/20 08:39:58;;;;;;;42.22;25.20;;;;;;;;;;5013220;28;20113;-84
2022/04/20 08:42:28;;;;;;;40.70;24.52;;;;;;;;;;5011977;28;20068;-84
2022/04/20 08:44:56;;;;;;;37.53;21.83;;;;;;;;;;5012056;28;20541;-84
2022/04/20 08:47:23;;;;;;;36.92;23.20;;;;;;;;;;5012070;28;20492;-84
2022/04/20 08:49:50;;;;;;;37.55;22.92;;;;;;;;;;5012007;28;20042;-84
2022/04/20 08:52:37;;;;;;;34.38;20.88;;;;;;;;;;5013146;28;20037;-84
2022/04/20 08:55:07;;;;;;;38.97;22.13;;;;;;;;;;5013147;28;20018;-84
2022/04/20 08:57:35;;;;;;;38.47;21.90;;;;;;;;;;5013064;28;20034;-84
2022/04/20 09:00:01;;;;;;;39.85;21.73;;;;;;;;;;5011519;28;20265;-84
2022/04/20 09:02:28;;;;;;;37.20;22.75;;;;;;;;;;5013118;28;20029;-85
2022/04/20 09:04:54;;;;;;;36.95;21.52;;;;;;;;;;5013351;28;20050;-85
2022/04/20 09:07:21;;;;;;;35.47;22.77;;;;;;;;;;5011634;28;20038;-85
2022/04/20 09:09:46;;;;;;;37.20;22.65;;;;;;;;;;5012910;28;20075;-85
2022/04/20 09:12:16;;;;;;;39.13;21.45;;;;;;;;;;5012778;28;20092;-85
2022/04/20 09:14:43;;;;;;;37.07;20.77;;;;;;;;;;5012931;28;20117;-84
2022/04/20 09:17:20;;;;;;;36.95;21.92;;;;;;;;;;5011722;28;20615;-85
2022/04/20 09:19:47;;;;;;;47.03;27.02;;;;;;;;;;5012805;28;20538;-85
2022/04/20 09:22:15;;;;;;;39.75;24.20;;;;;;;;;;5011538;28;20030;-84
2022/04/20 09:24:57;;;;;;;37.90;23.40;;;;;;;;;;5012949;28;20030;-85
2022/04/20 09:27:22;;;;;;;38.35;21.00;;;;;;;;;;5012785;28;20041;-84
2022/04/20 09:29:51;;;;;;;34.90;19.57;;;;;;;;;;5012862;28;20029;-85
2022/04/20 09:32:30;;;;;;;34.50;21.13;;;;;;;;;;5013386;28;20343;-85
2022/04/20 09:34:59;;;;;;;34.38;19.92;;;;;;;;;;5032841;28;20091;-84
2022/04/20 09:37:25;;;;;;;34.05;20.42;;;;;;;;;;5033264;28;20018;-84
2022/04/20 09:39:52;;;;;;;29.17;17.90;;;;;;;;;;5015644;28;20037;-84
2022/04/20 09:42:21;;;;;;;36.00;20.77;;;;;;;;;;5032099;28;20029;-84
2022/04/20 09:44:53;;;;;;;31.80;17.90;;;;;;;;;;5033168;28;20044;-83
2022/04/20 09:50:07;;;;;;;27.25;17.10;;;;;;;;;;5014664;28;20033;-83
2022/04/20 09:52:41;;;;;;;30.60;18.80;;;;;;;;;;5032536;28;20380;-83
2022/04/20 09:55:08;;;;;;;31.83;19.30;;;;;;;;;;5014774;28;20065;-84
2022/04/20 09:57:34;;;;;;;29.45;18.50;;;;;;;;;;5032291;28;20473;-84
2022/04/20 10:00:00;;;;;;;33.03;20.40;;;;;;;;;;5031983;28;20108;-84
2022/04/20 10:02:28;;;;;;;31.58;18.83;;;;;;;;;;5032088;28;20037;-84
2022/04/20 10:04:55;;;;;;;30.48;19.25;;;;;;;;;;5031069;28;20080;-84
2022/04/20 10:07:20;;;;;;;29.42;18.30;;;;;;;;;;5014480;28;20435;-84
2022/04/20 10:09:46;;;;;;;16.30;11.50;;;;;;;;;;5034823;28;20029;-84
2022/04/20 10:12:13;;;;;;;21.90;14.02;;;;;;;;;;5035911;28;20033;-85
2022/04/20 10:17:25;;;;;;;23.85;14.93;;;;;;;;;;5035835;28;20071;-85
2022/04/20 10:19:52;;;;;;;20.88;14.23;;;;;;;;;;5035553;28;20415;-84
2022/04/20 10:22:18;;;;;;;16.88;11.65;;;;;;;;;;5035693;28;20420;-85
2022/04/20 10:24:45;;;;;;;18.05;12.80;;;;;;;;;;5035695;28;20096;-84
2022/04/20 10:27:15;;;;;;;22.80;13.63;;;;;;;;;;5017878;28;20033;-82
2022/04/20 10:30:01;;;;;;;16.73;11.68;;;;;;;;;;5035615;28;20018;-80
2022/04/20 10:33:02;;;;;;;20.48;12.15;;;;;;;;;;5034724;28;20454;-86
2022/04/20 10:35:28;;;;;;;15.95;11.23;;;;;;;;;;4986012;28;20136;-86
2022/04/20 10:38:08;;;;;;;18.77;12.35;;;;;;;;;;5035368;28;20022;-86
2022/04/20 10:40:59;;;;;;;19.88;11.80;;;;;;;;;;5017390;28;20045;-86
2022/04/20 10:43:26;;;;;;;20.42;13.43;;;;;;;;;;5017614;28;20057;-87
2022/04/20 10:46:16;;;;;;;20.98;12.77;;;;;;;;;;5035229;28;20053;-86
2022/04/20 10:48:45;;;;;;;17.58;12.43;;;;;;;;;;5035209;28;20025;-86
2022/04/20 10:51:14;;;;;;;19.90;13.23;;;;;;;;;;5035160;28;20079;-86
2022/04/20 10:53:39;;;;;;;20.38;13.77;;;;;;;;;;5034888;28;20045;-85
2022/04/20 10:56:04;;;;;;;29.45;16.75;;;;;;;;;;5017485;28;20053;-85
2022/04/20 10:58:31;;;;;;;20.88;13.40;;;;;;;;;;5035224;28;20034;-85
2022/04/20 11:01:25;;;;;;;18.65;13.73;;;;;;;;;;5035248;28;20028;-85
2022/04/20 11:03:59;;;;;;;17.45;11.63;;;;;;;;;;5028374;28;20037;-85
2022/04/20 11:06:28;;;;;;;22.00;12.65;;;;;;;;;;5017026;28;20033;-85
2022/04/20 11:08:58;;;;;;;17.25;12.10;;;;;;;;;;5017151;28;20424;-85
2022/04/20 11:20:08;;;;;;;17.40;11.70;;;;;;;;;;5016470;28;20060;-85
2022/04/20 11:22:44;;;;;;;16.85;11.07;;;;;;;;;;5016589;28;20091;-85
2022/04/20 11:25:10;;;;;;;19.10;12.80;;;;;;;;;;5016701;28;20468;-85
2022/04/20 11:27:35;;;;;;;15.95;11.25;;;;;;;;;;5016886;28;20023;-85
2022/04/20 11:30:03;;;;;;;15.88;12.18;;;;;;;;;;5034391;28;20052;-86
2022/04/20 11:32:29;;;;;;;17.65;12.55;;;;;;;;;;5034242;28;20045;-85
2022/04/20 11:35:06;;;;;;;17.00;13.77;;;;;;;;;;5016635;28;20021;-85
2022/04/20 11:37:33;;;;;;;13.93;9.52;;;;;;;;;;5034275;28;20036;-86
2022/04/20 11:39:59;;;;;;;16.17;12.30;;;;;;;;;;5033931;28;20040;-86
2022/04/20 11:42:24;;;;;;;17.70;12.80;;;;;;;;;;5016287;28;20469;-86
2022/04/20 11:44:50;;;;;;;15.82;12.13;;;;;;;;;;5034225;28;20067;-86
2022/04/20 11:47:25;;;;;;;14.98;10.85;;;;;;;;;;5034042;28;20072;-86
2022/04/20 11:49:50;;;;;;;17.02;12.18;;;;;;;;;;5034047;28;20049;-86
2022/04/20 11:52:21;;;;;;;17.20;12.27;;;;;;;;;;5016210;28;20079;-86
2022/04/20 11:55:03;;;;;;;16.42;12.57;;;;;;;;;;5016270;28;20047;-86
2022/04/20 11:57:29;;;;;;;20.10;13.82;;;;;;;;;;5016320;28;20025;-86
2022/04/20 11:59:57;;;;;;;14.85;11.30;;;;;;;;;;5033807;28;20100;-86
2022/04/20 12:02:24;;;;;;;16.30;12.25;;;;;;;;;;5033486;28;20056;-86
2022/04/20 12:05:07;;;;;;;13.38;10.27;;;;;;;;;;5000827;28;20029;-86
2022/04/20 12:07:33;;;;;;;16.02;12.45;;;;;;;;;;5033822;28;20037;-86
2022/04/20 12:09:59;;;;;;;13.57;11.32;;;;;;;;;;5033591;28;20129;-86
2022/04/20 12:12:24;;;;;;;15.57;9.93;;;;;;;;;;5033663;28;20053;-86
2022/04/20 12:14:49;;;;;;;13.93;11.23;;;;;;;;;;5033551;28;20023;-86
2022/04/20 12:17:20;;;;;;;13.63;10.43;;;;;;;;;;5015670;28;20116;-86
2022/04/20 12:19:47;;;;;;;16.80;12.18;;;;;;;;;;5015647;28;20087;-86
2022/04/20 12:22:13;;;;;;;12.52;10.15;;;;;;;;;;5033190;28;20401;-86
2022/04/20 12:24:42;;;;;;;15.45;11.02;;;;;;;;;;5015540;28;20068;-85
2022/04/20 12:27:17;;;;;;;14.65;10.43;;;;;;;;;;5033299;28;20026;-85
2022/04/20 12:29:43;;;;;;;10.50;8.73;;;;;;;;;;5033330;28;20147;-85
2022/04/20 12:32:08;;;;;;;14.23;11.20;;;;;;;;;;4998626;28;20020;-86
2022/04/20 12:34:34;;;;;;;12.45;9.90;;;;;;;;;;5033287;28;20037;-85
2022/04/20 12:37:06;;;;;;;;;;;;;;;;;;5015890;28;20064;-86
2022/04/20 12:39:39;;;;;;;10.07;9.02;;;;;;;;;;5015187;28;20276;-86
2022/04/20 12:42:06;;;;;;;12.38;10.27;;;;;;;;;;5015222;28;20033;-86
2022/04/20 12:44:58;;;;;;;12.25;10.73;;;;;;;;;;5033083;28;20021;-86
2022/04/20 12:47:24;;;;;;;11.77;9.73;;;;;;;;;;5032918;28;20083;-87
2022/04/20 12:49:52;;;;;;;13.73;10.57;;;;;;;;;;4998960;28;20014;-86
2022/04/20 12:52:24;;;;;;;15.63;12.35;;;;;;;;;;5032839;28;20284;-86
2022/04/20 12:54:53;;;;;;;16.92;12.40;;;;;;;;;;5015345;28;20053;-86
2022/04/20 13:02:58;;;;;;;9.10;7.95;;;;;;;;;;5032874;28;20431;-85
2022/04/20 13:05:24;;;;;;;8.57;7.07;;;;;;;;;;5032841;28;20025;-85
2022/04/20 13:07:50;;;;;;;8.80;7.75;;;;;;;;;;5032739;28;20033;-85
2022/04/20 13:10:16;;;;;;;8.02;7.20;;;;;;;;;;5032684;28;20017;-85
2022/04/20 13:12:52;;;;;;;7.80;7.00;;;;;;;;;;5015155;28;20473;-85
2022/04/20 13:15:20;;;;;;;7.65;6.32;;;;;;;;;;4998807;28;20471;-85
2022/04/20 13:17:46;;;;;;;6.72;6.13;;;;;;;;;;5015192;28;20009;-85
2022/04/20 13:20:12;;;;;;;7.03;6.38;;;;;;;;;;5032523;28;20384;-84
2022/04/20 13:22:37;;;;;;;9.48;6.50;;;;;;;;;;5032559;28;20104;-84
2022/04/20 13:27:54;;;;;;;7.80;6.40;;;;;;;;;;5014889;28;20041;-84
2022/04/20 13:30:19;;;;;;;6.70;5.93;;;;;;;;;;5014822;28;20037;-84
2022/04/20 13:32:45;;;;;;;7.63;6.78;;;;;;;;;;5014656;28;20037;-85
2022/04/20 13:35:10;;;;;;;7.88;7.13;;;;;;;;;;5032415;28;20060;-84
2022/04/20 13:37:35;;;;;;;7.72;5.63;;;;;;;;;;5032397;28;20079;-84
2022/04/20 13:40:01;;;;;;;9.43;7.88;;;;;;;;;;5032466;28;20144;-83
2022/04/20 13:42:27;;;;;;;6.88;6.10;;;;;;;;;;5015525;28;20021;-84
2022/04/20 13:44:52;;;;;;;9.65;7.88;;;;;;;;;;5018700;28;20069;-84
2022/04/20 13:47:17;;;;;;;8.77;7.88;;;;;;;;;;5036443;28;20062;-82
2022/04/20 13:49:43;;;;;;;8.35;7.55;;;;;;;;;;5035373;28;20029;-82
2022/04/20 13:52:08;;;;;;;10.45;8.57;;;;;;;;;;5018633;28;20407;-82
2022/04/20 13:54:34;;;;;;;7.75;7.03;;;;;;;;;;5036339;28;20032;-83
2022/04/20 13:57:03;;;;;;;7.63;6.85;;;;;;;;;;5019185;28;20087;-83
2022/04/20 13:59:28;;;;;;;9.35;8.38;;;;;;;;;;5036218;28;20026;-83
2022/04/20 14:01:54;;;;;;;10.93;8.75;;;;;;;;;;5035949;28;20409;-83
2022/04/20 14:04:20;;;;;;;9.25;8.32;;;;;;;;;;5035818;28;20034;-84
2022/04/20 14:06:45;;;;;;;8.63;7.55;;;;;;;;;;5036781;28;20029;-84
2022/04/20 14:09:11;;;;;;;9.55;8.55;;;;;;;;;;5019824;28;20032;-84
2022/04/20 14:11:38;;;;;;;10.70;9.60;;;;;;;;;;5037290;28;20473;-75
2022/04/20 14:14:04;;;;;;;9.52;8.63;;;;;;;;;;5019732;28;20034;-74
2022/04/20 14:16:31;;;;;;;12.35;9.85;;;;;;;;;;5036649;28;20430;-74
2022/04/20 14:18:59;;;;;;;11.43;10.23;;;;;;;;;;5036288;28;20038;-72
2022/04/20 14:21:24;;;;;;;12.57;9.75;;;;;;;;;;5035571;28;20057;-74
2022/04/20 14:23:50;;;;;;;12.88;9.98;;;;;;;;;;5017793;28;20056;-74
2022/04/20 14:34:30;;;;;;;11.40;10.27;;;;;;;;;;5011109;28;20095;-74
2022/04/20 14:36:56;;;;;;;11.68;9.48;;;;;;;;;;4998700;28;20033;-74
2022/04/20 14:39:22;;;;;;;13.32;10.80;;;;;;;;;;5014862;28;20071;-73
2022/04/20 14:41:47;;;;;;;12.70;10.98;;;;;;;;;;5032852;28;20033;-73
2022/04/20 14:44:12;;;;;;;11.93;9.65;;;;;;;;;;5014068;28;20040;-74
2022/04/20 14:46:38;;;;;;;11.18;9.88;;;;;;;;;;5032324;28;20029;-74
2022/04/20 14:49:04;;;;;;;11.73;8.82;;;;;;;;;;5032686;28;20033;-74
2022/04/20 14:51:29;;;;;;;12.27;9.43;;;;;;;;;;5032852;28;20018;-75
2022/04/20 14:53:57;;;;;;;10.63;8.07;;;;;;;;;;5031855;28;20435;-74
2022/04/20 14:56:22;;;;;;;11.90;10.13;;;;;;;;;;5032428;28;20018;-75
2022/04/20 14:58:48;;;;;;;12.00;9.57;;;;;;;;;;5032479;28;20396;-75
2022/04/20 15:01:14;;;;;;;10.43;9.32;;;;;;;;;;5014375;28;20029;-75
2022/04/20 15:03:40;;;;;;;8.82;7.93;;;;;;;;;;5032136;28;20021;-75
2022/04/20 15:06:08;;;;;;;12.30;9.07;;;;;;;;;;5031947;28;20025;-75
2022/04/20 15:08:33;;;;;;;13.57;10.48;;;;;;;;;;5032356;28;20125;-75
2022/04/20 15:10:59;;;;;;;18.00;12.18;;;;;;;;;;5032188;28;20100;-76
2022/04/20 15:13:27;;;;;;;17.02;11.60;;;;;;;;;;5030677;28;20050;-76
2022/04/20 15:15:53;;;;;;;16.15;10.88;;;;;;;;;;5014214;28;20020;-76
2022/04/20 15:18:18;;;;;;;10.75;9.55;;;;;;;;;;5030613;28;20042;-75
2022/04/20 15:20:44;;;;;;;12.82;9.32;;;;;;;;;;5014039;28;20530;-76
2022/04/20 15:23:09;;;;;;;8.27;7.45;;;;;;;;;;5014370;28;20033;-76
2022/04/20 15:25:36;;;;;;;11.05;8.93;;;;;;;;;;5030676;28;20485;-76
2022/04/20 15:28:02;;;;;;;11.88;10.18;;;;;;;;;;5032285;28;20029;-76
2022/04/20 15:30:38;;;;;;;17.58;12.38;;;;;;;;;;5031910;28;20168;-76
2022/04/20 15:33:04;;;;;;;18.17;13.00;;;;;;;;;;5031429;28;20176;-76
2022/04/20 15:35:30;;;;;;;17.75;12.85;;;;;;;;;;5031392;28;20036;-76
2022/04/20 15:37:55;;;;;;;14.63;10.32;;;;;;;;;;5032099;28;20537;-76
2022/04/20 15:40:21;;;;;;;13.30;10.05;;;;;;;;;;5031598;28;20044;-75
2022/04/20 15:42:46;;;;;;;10.27;8.32;;;;;;;;;;5030021;28;20021;-75
2022/04/20 15:45:12;;;;;;;12.18;10.63;;;;;;;;;;5031185;28;20017;-74
2022/04/20 15:47:37;;;;;;;13.27;10.57;;;;;;;;;;5031228;28;20037;-74
2022/04/20 15:50:03;;;;;;;11.20;9.40;;;;;;;;;;5031837;28;20028;-76
2022/04/20 15:52:29;;;;;;;12.38;10.40;;;;;;;;;;5031445;28;20284;-76
2022/04/20 16:00:26;;;;;;;15.88;13.65;;;;;;;;;;5030932;28;20083;-76
2022/04/20 16:02:52;;;;;;;15.93;14.23;;;;;;;;;;5031068;28;20017;-76
2022/04/20 16:05:18;;;;;;;18.52;15.45;;;;;;;;;;5030565;28;20474;-76
2022/04/20 16:07:43;;;;;;;15.68;14.02;;;;;;;;;;5029009;28;20021;-76
2022/04/20 16:10:09;;;;;;;14.70;11.20;;;;;;;;;;5030658;28;20021;-76
2022/04/20 16:12:35;;;;;;;18.90;15.32;;;;;;;;;;5030844;28;20465;-76
2022/04/20 16:15:01;;;;;;;18.23;14.88;;;;;;;;;;5030823;28;20477;-76
2022/04/20 16:17:27;;;;;;;13.45;11.43;;;;;;;;;;5030994;28;20040;-76
2022/04/20 16:19:53;;;;;;;16.83;14.20;;;;;;;;;;5012637;28;20037;-77